Time,TemperatureF,DewpointF,PressureIn,WindDirection,WindDirectionDegrees,WindSpeedMPH,WindSpeedGustMPH,Humidity,HourlyPrecipIn,Conditions,Clouds,dailyrainin,SolarRadiationWatts/m^2,SoftwareType,DateUTC
2013-06-18 01:02:00,59.0,23.0,-100.00,SW,215,5.0,7.0,24,0.00,,,-99.99,0.000000,,2013-06-18 07:02:00,
2013-06-18 01:12:00,61.0,23.0,-100.00,SW,221,4.0,8.0,23,0.00,,,-99.99,0.000000,,2013-06-18 07:12:00,
2013-06-18 01:22:00,59.0,24.0,-100.00,SW,222,3.0,6.0,26,0.00,,,-99.99,0.000000,,2013-06-18 07:22:00,
2013-06-18 01:33:00,59.0,24.0,-100.00,SSW,200,5.0,8.0,25,0.00,,,-99.99,0.000000,,2013-06-18 07:33:00,
2013-06-18 01:43:00,60.0,21.0,-100.00,South,188,5.0,7.0,22,0.00,,,-99.99,0.000000,,2013-06-18 07:43:00,
2013-06-18 01:52:00,60.0,21.0,-100.00,South,188,5.0,7.0,22,0.00,,,-99.99,0.000000,,2013-06-18 07:52:00,
2013-06-18 02:01:00,63.0,21.0,-100.00,SSW,201,9.0,14.0,20,0.00,,,-99.99,0.000000,,2013-06-18 08:01:00,
2013-06-18 02:11:00,63.0,20.0,-100.00,South,191,9.0,14.0,19,0.00,,,-99.99,0.000000,,2013-06-18 08:11:00,
2013-06-18 02:23:00,64.0,19.0,-100.00,SSW,210,6.0,8.0,17,0.00,,,-99.99,0.000000,,2013-06-18 08:23:00,
2013-06-18 02:32:00,64.0,19.0,-100.00,SSW,210,6.0,8.0,17,0.00,,,-99.99,0.000000,,2013-06-18 08:32:00,
2013-06-18 02:43:00,63.0,20.0,-100.00,SW,231,6.0,8.0,19,0.00,,,-99.99,0.000000,,2013-06-18 08:43:00,
2013-06-18 02:52:00,63.0,22.0,-100.00,SSW,195,5.0,6.0,21,0.00,,,-99.99,0.000000,,2013-06-18 08:52:00,
2013-06-18 03:01:00,62.0,20.0,-100.00,SSW,197,5.0,7.0,20,0.00,,,-99.99,0.000000,,2013-06-18 09:01:00,
2013-06-18 03:11:00,62.0,19.0,-100.00,South,179,5.0,9.0,19,0.00,,,-99.99,0.000000,,2013-06-18 09:11:00,
2013-06-18 03:22:00,62.0,19.0,-100.00,South,179,5.0,9.0,19,0.00,,,-99.99,0.000000,,2013-06-18 09:22:00,
2013-06-18 03:34:00,62.0,26.0,-100.00,WSW,248,4.0,7.0,26,0.00,,,-99.99,0.000000,,2013-06-18 09:34:00,
2013-06-18 03:42:00,58.0,28.0,-100.00,NW,308,4.0,6.0,32,0.00,,,-99.99,0.000000,,2013-06-18 09:42:00,
2013-06-18 03:53:00,58.0,28.0,-100.00,NW,308,4.0,6.0,32,0.00,,,-99.99,0.000000,,2013-06-18 09:53:00,
2013-06-18 04:01:00,56.0,30.0,-100.00,SW,236,3.0,4.0,37,0.00,,,-99.99,0.000000,,2013-06-18 10:01:00,
2013-06-18 04:11:00,56.0,30.0,-100.00,SW,236,3.0,4.0,37,0.00,,,-99.99,0.000000,,2013-06-18 10:11:00,
2013-06-18 05:43:00,54.0,23.0,-100.00,South,187,6.0,9.0,29,0.00,,,-99.99,0.000000,,2013-06-18 11:43:00,
2013-06-18 05:52:00,54.0,23.0,-100.00,South,187,6.0,9.0,29,0.00,,,-99.99,0.000000,,2013-06-18 11:52:00,
2013-06-18 06:01:00,57.0,24.0,-100.00,South,191,7.0,9.0,28,0.00,,,-99.99,0.000000,,2013-06-18 12:01:00,
2013-06-18 06:11:00,57.0,23.0,-100.00,South,185,6.0,8.0,26,0.00,,,-99.99,1.000000,,2013-06-18 12:11:00,
2013-06-18 06:22:00,60.0,22.0,-100.00,SSW,195,7.0,10.0,23,0.00,,,-99.99,5.000000,,2013-06-18 12:22:00,
2013-06-18 06:32:00,60.0,22.0,-100.00,SSW,195,7.0,10.0,23,0.00,,,-99.99,5.000000,,2013-06-18 12:32:00,
2013-06-18 06:42:00,58.0,24.0,-100.00,South,184,4.0,6.0,27,0.00,,,-99.99,22.000000,,2013-06-18 12:42:00,
2013-06-18 06:52:00,58.0,24.0,-100.00,South,184,4.0,6.0,27,0.00,,,-99.99,22.000000,,2013-06-18 12:52:00,
2013-06-18 07:01:00,57.0,24.0,-100.00,SW,228,4.0,5.0,28,0.00,,,-99.99,27.000000,,2013-06-18 13:01:00,
2013-06-18 07:11:00,56.0,26.0,-100.00,SSW,207,4.0,6.0,32,0.00,,,-99.99,90.000000,,2013-06-18 13:11:00,
2013-06-18 07:22:00,57.0,34.0,-100.00,SSW,199,5.0,9.0,41,0.00,,,-99.99,147.000000,,2013-06-18 13:22:00,
2013-06-18 07:33:00,57.0,34.0,-100.00,SSW,199,5.0,9.0,41,0.00,,,-99.99,147.000000,,2013-06-18 13:33:00,
2013-06-18 08:22:00,58.0,39.0,-100.00,SSW,208,4.0,7.0,49,0.00,,,-99.99,352.000000,,2013-06-18 14:22:00,
2013-06-18 08:43:00,62.0,39.0,-100.00,SSW,199,4.0,6.0,44,0.00,,,-99.99,425.000000,,2013-06-18 14:43:00,
2013-06-18 08:53:00,62.0,39.0,-100.00,SSW,199,4.0,6.0,44,0.00,,,-99.99,425.000000,,2013-06-18 14:53:00,
2013-06-18 09:22:00,72.0,53.0,-100.00,ESE,111,3.0,5.0,50,0.00,,,-99.99,565.000000,,2013-06-18 15:22:00,
2013-06-18 09:33:00,75.0,49.0,-100.00,East,79,3.0,4.0,40,0.00,,,-99.99,598.000000,,2013-06-18 15:33:00,
2013-06-18 10:01:00,82.0,51.0,-100.00,NE,56,3.0,5.0,35,0.00,,,-99.99,698.000000,,2013-06-18 16:01:00,
2013-06-18 10:22:00,82.0,53.0,-100.00,SSE,160,2.0,3.0,37,0.00,,,-99.99,759.000000,,2013-06-18 16:22:00,
2013-06-18 10:33:00,83.0,49.0,-100.00,East,88,2.0,3.0,30,0.00,,,-99.99,785.000000,,2013-06-18 16:33:00,
2013-06-18 10:43:00,84.0,55.0,-100.00,ENE,61,2.0,4.0,37,0.00,,,-99.99,815.000000,,2013-06-18 16:43:00,
2013-06-18 11:11:00,86.0,54.0,-100.00,SE,132,2.0,4.0,34,0.00,,,-99.99,897.000000,,2013-06-18 17:11:00,
2013-06-18 11:22:00,88.0,56.0,-100.00,ENE,59,3.0,5.0,34,0.00,,,-99.99,920.000000,,2013-06-18 17:22:00,
2013-06-18 11:33:00,84.0,42.0,-100.00,ESE,115,4.0,7.0,23,0.00,,,-99.99,942.000000,,2013-06-18 17:33:00,
2013-06-18 11:43:00,84.0,50.0,-100.00,SSE,150,4.0,8.0,31,0.00,,,-99.99,969.000000,,2013-06-18 17:43:00,
2013-06-18 11:53:00,83.0,38.0,-100.00,South,177,6.0,9.0,20,0.00,,,-99.99,990.000000,,2013-06-18 17:53:00,
2013-06-18 12:01:00,84.0,38.0,-100.00,South,172,6.0,9.0,20,0.00,,,-99.99,1008.000000,,2013-06-18 18:01:00,
2013-06-18 12:11:00,84.0,42.0,-100.00,South,189,6.0,10.0,23,0.00,,,-99.99,1023.000000,,2013-06-18 18:11:00,
2013-06-18 12:22:00,84.0,42.0,-100.00,South,189,6.0,10.0,23,0.00,,,-99.99,1023.000000,,2013-06-18 18:22:00,
2013-06-18 13:22:00,86.0,31.0,-100.00,SSW,204,11.0,16.0,14,0.00,,,-99.99,1106.000000,,2013-06-18 19:22:00,
2013-06-18 13:33:00,86.0,33.0,-100.00,South,187,9.0,13.0,15,0.00,,,-99.99,1112.000000,,2013-06-18 19:33:00,
2013-06-18 13:43:00,87.0,32.0,-100.00,South,185,8.0,14.0,14,0.00,,,-99.99,1121.000000,,2013-06-18 19:43:00,
2013-06-18 13:52:00,87.0,32.0,-100.00,South,185,8.0,14.0,14,0.00,,,-99.99,1121.000000,,2013-06-18 19:52:00,
2013-06-18 14:01:00,87.0,30.0,-100.00,SSE,165,9.0,16.0,13,0.00,,,-99.99,1121.000000,,2013-06-18 20:01:00,
2013-06-18 14:11:00,87.0,31.0,-100.00,SSW,205,8.0,13.0,13,0.00,,,-99.99,1121.000000,,2013-06-18 20:11:00,
2013-06-18 14:22:00,88.0,33.0,-100.00,South,182,7.0,12.0,14,0.00,,,-99.99,1099.000000,,2013-06-18 20:22:00,
2013-06-18 14:33:00,88.0,38.0,-100.00,South,188,6.0,12.0,17,0.00,,,-99.99,1094.000000,,2013-06-18 20:33:00,
2013-06-18 15:01:00,87.0,31.0,-100.00,South,182,8.0,12.0,13,0.00,,,-99.99,1076.000000,,2013-06-18 21:01:00,
2013-06-18 15:11:00,88.0,33.0,-100.00,SSE,167,6.0,12.0,14,0.00,,,-99.99,1065.000000,,2013-06-18 21:11:00,
2013-06-18 15:33:00,88.0,35.0,-100.00,South,181,8.0,12.0,15,0.00,,,-99.99,1018.000000,,2013-06-18 21:33:00,
2013-06-18 15:43:00,88.0,39.0,-100.00,South,181,6.0,10.0,18,0.00,,,-99.99,1008.000000,,2013-06-18 21:43:00,
2013-06-18 15:52:00,88.0,35.0,-100.00,South,170,8.0,13.0,15,0.00,,,-99.99,992.000000,,2013-06-18 21:52:00,
2013-06-18 16:01:00,88.0,35.0,-100.00,SSE,159,7.0,13.0,15,0.00,,,-99.99,961.000000,,2013-06-18 22:01:00,
2013-06-18 16:22:00,88.0,40.0,-100.00,SSE,158,7.0,11.0,18,0.00,,,-99.99,917.000000,,2013-06-18 22:22:00,
2013-06-18 16:34:00,88.0,33.0,-100.00,South,182,7.0,16.0,14,0.00,,,-99.99,893.000000,,2013-06-18 22:34:00,
2013-06-18 16:42:00,89.0,31.0,-100.00,South,179,8.0,13.0,13,0.00,,,-99.99,869.000000,,2013-06-18 22:42:00,
2013-06-18 16:53:00,89.0,31.0,-100.00,South,179,8.0,13.0,13,0.00,,,-99.99,869.000000,,2013-06-18 22:53:00,
2013-06-18 17:01:00,88.0,29.0,-100.00,SSE,163,8.0,15.0,12,0.00,,,-99.99,841.000000,,2013-06-18 23:01:00,
2013-06-18 17:11:00,89.0,39.0,-100.00,South,188,5.0,10.0,17,0.00,,,-99.99,787.000000,,2013-06-18 23:11:00,
2013-06-18 18:22:00,88.0,29.0,-100.00,South,169,6.0,12.0,12,0.00,,,-99.99,554.000000,,2013-06-19 00:22:00,
2013-06-18 18:33:00,88.0,29.0,-100.00,South,169,6.0,12.0,12,0.00,,,-99.99,554.000000,,2013-06-19 00:33:00,
2013-06-18 18:43:00,87.0,28.0,-100.00,South,185,7.0,14.0,12,0.00,,,-99.99,522.000000,,2013-06-19 00:43:00,
2013-06-18 18:53:00,87.0,28.0,-100.00,South,180,7.0,13.0,12,0.00,,,-99.99,484.000000,,2013-06-19 00:53:00,
2013-06-18 19:01:00,86.0,25.0,-100.00,South,182,6.0,12.0,11,0.00,,,-99.99,448.000000,,2013-06-19 01:01:00,
2013-06-18 19:11:00,85.0,25.0,-100.00,South,180,8.0,13.0,11,0.00,,,-99.99,375.000000,,2013-06-19 01:11:00,
2013-06-18 19:22:00,85.0,29.0,-100.00,SSW,206,8.0,12.0,13,0.00,,,-99.99,339.000000,,2013-06-19 01:22:00,
2013-06-18 19:32:00,85.0,29.0,-100.00,SSW,206,8.0,12.0,13,0.00,,,-99.99,339.000000,,2013-06-19 01:32:00,
2013-06-18 19:42:00,84.0,26.0,-100.00,SW,222,7.0,11.0,12,0.00,,,-99.99,304.000000,,2013-06-19 01:42:00,
2013-06-18 19:53:00,84.0,31.0,-100.00,SSW,200,6.0,12.0,15,0.00,,,-99.99,266.000000,,2013-06-19 01:53:00,
2013-06-18 21:01:00,76.0,24.0,-100.00,SSE,160,4.0,7.0,14,0.00,,,-99.99,13.000000,,2013-06-19 03:01:00,
2013-06-18 21:21:00,73.0,28.0,-100.00,South,179,4.0,7.0,19,0.00,,,-99.99,2.000000,,2013-06-19 03:21:00,
2013-06-18 21:32:00,71.0,31.0,-100.00,South,173,3.0,4.0,23,0.00,,,-99.99,1.000000,,2013-06-19 03:32:00,
2013-06-18 21:42:00,68.0,38.0,-100.00,South,188,3.0,5.0,33,0.00,,,-99.99,0.000000,,2013-06-19 03:42:00,
2013-06-18 21:52:00,66.0,34.0,-100.00,South,174,4.0,5.0,31,0.00,,,-99.99,0.000000,,2013-06-19 03:52:00,
2013-06-18 22:01:00,65.0,36.0,-100.00,South,174,4.0,6.0,34,0.00,,,-99.99,0.000000,,2013-06-19 04:01:00,
2013-06-18 23:32:00,65.0,24.0,-100.00,SSW,198,5.0,9.0,21,0.00,,,-99.99,0.000000,,2013-06-19 05:32:00,